sensor_id;sensor_type;location;lat;lon;timestamp;temperature;humidity
5200;DHT22;2619;47.868;11.892;2022-08-05T00:01:31;18.20;99.90
5200;DHT22;2619;47.868;11.892;2022-08-05T00:03:57;18.20;99.90
5200;DHT22;2619;47.868;11.892;2022-08-05T00:06:23;18.20;99.90
5200;DHT22;2619;47.868;11.892;2022-08-05T00:08:49;18.10;99.90
5200;DHT22;2619;47.868;11.892;2022-08-05T00:11:14;18.10;99.90
5200;DHT22;2619;47.868;11.892;2022-08-05T00:13:42;18.20;99.90
5200;DHT22;2619;47.868;11.892;2022-08-05T00:16:11;18.20;99.90
5200;DHT22;2619;47.868;11.892;2022-08-05T00:18:37;18.20;99.90
5200;DHT22;2619;47.868;11.892;2022-08-05T00:21:04;18.10;99.90
5200;DHT22;2619;47.868;11.892;2022-08-05T00:23:30;18.00;99.90
5200;DHT22;2619;47.868;11.892;2022-08-05T00:25:56;18.00;99.90
5200;DHT22;2619;47.868;11.892;2022-08-05T00:28:21;18.00;99.90
5200;DHT22;2619;47.868;11.892;2022-08-05T00:30:47;18.00;99.90
5200;DHT22;2619;47.868;11.892;2022-08-05T00:33:14;17.90;99.90
5200;DHT22;2619;47.868;11.892;2022-08-05T00:35:40;18.00;99.90
5200;DHT22;2619;47.868;11.892;2022-08-05T00:38:05;17.90;99.90
5200;DHT22;2619;47.868;11.892;2022-08-05T00:40:31;17.90;99.90
5200;DHT22;2619;47.868;11.892;2022-08-05T00:42:59;18.00;99.90
5200;DHT22;2619;47.868;11.892;2022-08-05T00:45:25;18.10;99.90
5200;DHT22;2619;47.868;11.892;2022-08-05T00:47:51;18.10;99.90
5200;DHT22;2619;47.868;11.892;2022-08-05T00:50:16;18.10;99.90
5200;DHT22;2619;47.868;11.892;2022-08-05T00:52:42;18.00;99.90
5200;DHT22;2619;47.868;11.892;2022-08-05T00:55:08;18.10;99.90
5200;DHT22;2619;47.868;11.892;2022-08-05T00:57:33;18.20;99.90
5200;DHT22;2619;47.868;11.892;2022-08-05T00:59:59;18.20;99.90
5200;DHT22;2619;47.868;11.892;2022-08-05T01:02:24;18.30;99.90
5200;DHT22;2619;47.868;11.892;2022-08-05T01:04:50;18.20;99.90
5200;DHT22;2619;47.868;11.892;2022-08-05T01:07:16;18.20;99.90
5200;DHT22;2619;47.868;11.892;2022-08-05T01:09:41;18.20;99.90
5200;DHT22;2619;47.868;11.892;2022-08-05T01:12:12;18.10;99.90
5200;DHT22;2619;47.868;11.892;2022-08-05T01:14:46;18.00;99.90
5200;DHT22;2619;47.868;11.892;2022-08-05T01:17:26;18.00;99.90
5200;DHT22;2619;47.868;11.892;2022-08-05T01:19:54;18.00;99.90
5200;DHT22;2619;47.868;11.892;2022-08-05T01:30:44;18.00;99.90
5200;DHT22;2619;47.868;11.892;2022-08-05T01:33:11;18.10;99.90
5200;DHT22;2619;47.868;11.892;2022-08-05T01:35:40;18.20;99.90
5200;DHT22;2619;47.868;11.892;2022-08-05T01:38:07;18.20;99.90
5200;DHT22;2619;47.868;11.892;2022-08-05T01:40:35;18.20;99.90
5200;DHT22;2619;47.868;11.892;2022-08-05T01:43:02;18.30;99.90
5200;DHT22;2619;47.868;11.892;2022-08-05T01:45:29;18.20;99.90
5200;DHT22;2619;47.868;11.892;2022-08-05T01:47:59;18.20;99.90
5200;DHT22;2619;47.868;11.892;2022-08-05T01:50:29;18.30;99.90
5200;DHT22;2619;47.868;11.892;2022-08-05T01:52:59;18.40;99.90
5200;DHT22;2619;47.868;11.892;2022-08-05T01:55:27;18.40;99.90
5200;DHT22;2619;47.868;11.892;2022-08-05T01:57:54;18.50;99.90
5200;DHT22;2619;47.868;11.892;2022-08-05T02:00:21;18.50;99.90
5200;DHT22;2619;47.868;11.892;2022-08-05T02:05:40;18.70;99.90
5200;DHT22;2619;47.868;11.892;2022-08-05T02:08:07;18.70;99.90
5200;DHT22;2619;47.868;11.892;2022-08-05T02:10:43;18.80;99.90
5200;DHT22;2619;47.868;11.892;2022-08-05T02:13:16;18.80;99.90
5200;DHT22;2619;47.868;11.892;2022-08-05T02:15:45;18.80;99.90
5200;DHT22;2619;47.868;11.892;2022-08-05T02:21:04;19.00;99.90
5200;DHT22;2619;47.868;11.892;2022-08-05T02:23:36;19.00;99.90
5200;DHT22;2619;47.868;11.892;2022-08-05T02:26:05;19.10;99.90
5200;DHT22;2619;47.868;11.892;2022-08-05T02:28:35;19.10;99.90
5200;DHT22;2619;47.868;11.892;2022-08-05T02:31:05;19.10;99.90
5200;DHT22;2619;47.868;11.892;2022-08-05T02:33:35;19.10;99.90
5200;DHT22;2619;47.868;11.892;2022-08-05T02:36:04;19.10;99.90
5200;DHT22;2619;47.868;11.892;2022-08-05T02:38:31;19.10;99.90
5200;DHT22;2619;47.868;11.892;2022-08-05T02:40:58;19.20;99.90
5200;DHT22;2619;47.868;11.892;2022-08-05T02:43:25;19.20;99.90
5200;DHT22;2619;47.868;11.892;2022-08-05T02:45:51;19.20;99.90
5200;DHT22;2619;47.868;11.892;2022-08-05T02:48:18;19.30;99.90
5200;DHT22;2619;47.868;11.892;2022-08-05T02:50:46;19.30;99.90
5200;DHT22;2619;47.868;11.892;2022-08-05T02:53:14;19.30;99.90
5200;DHT22;2619;47.868;11.892;2022-08-05T02:55:40;19.40;99.90
5200;DHT22;2619;47.868;11.892;2022-08-05T02:58:06;19.40;99.90
5200;DHT22;2619;47.868;11.892;2022-08-05T03:00:33;19.40;99.90
5200;DHT22;2619;47.868;11.892;2022-08-05T03:03:00;19.40;99.90
5200;DHT22;2619;47.868;11.892;2022-08-05T03:05:26;19.40;99.90
5200;DHT22;2619;47.868;11.892;2022-08-05T03:07:52;19.40;99.90
5200;DHT22;2619;47.868;11.892;2022-08-05T03:10:18;19.40;99.90
5200;DHT22;2619;47.868;11.892;2022-08-05T03:12:45;19.40;99.90
5200;DHT22;2619;47.868;11.892;2022-08-05T03:15:11;19.30;99.90
5200;DHT22;2619;47.868;11.892;2022-08-05T03:17:36;19.30;99.90
5200;DHT22;2619;47.868;11.892;2022-08-05T03:20:04;19.30;99.90
5200;DHT22;2619;47.868;11.892;2022-08-05T03:22:30;19.30;99.90
5200;DHT22;2619;47.868;11.892;2022-08-05T03:24:56;19.30;99.90
5200;DHT22;2619;47.868;11.892;2022-08-05T03:27:22;19.40;99.90
5200;DHT22;2619;47.868;11.892;2022-08-05T03:29:48;19.30;99.90
5200;DHT22;2619;47.868;11.892;2022-08-05T03:32:14;19.30;99.90
5200;DHT22;2619;47.868;11.892;2022-08-05T03:34:42;19.40;99.90
5200;DHT22;2619;47.868;11.892;2022-08-05T03:37:08;19.30;99.90
5200;DHT22;2619;47.868;11.892;2022-08-05T03:39:33;19.30;99.90
5200;DHT22;2619;47.868;11.892;2022-08-05T03:41:59;19.30;99.90
5200;DHT22;2619;47.868;11.892;2022-08-05T03:44:25;19.30;99.90
5200;DHT22;2619;47.868;11.892;2022-08-05T03:46:51;19.20;99.90
5200;DHT22;2619;47.868;11.892;2022-08-05T03:49:17;19.20;99.90
5200;DHT22;2619;47.868;11.892;2022-08-05T03:51:53;19.20;99.90
5200;DHT22;2619;47.868;11.892;2022-08-05T03:57:12;19.10;99.90
5200;DHT22;2619;47.868;11.892;2022-08-05T03:59:44;19.00;99.90
5200;DHT22;2619;47.868;11.892;2022-08-05T04:02:13;18.90;99.90
5200;DHT22;2619;47.868;11.892;2022-08-05T04:04:39;18.90;99.90
5200;DHT22;2619;47.868;11.892;2022-08-05T04:07:07;18.80;99.90
5200;DHT22;2619;47.868;11.892;2022-08-05T04:09:34;18.80;99.90
5200;DHT22;2619;47.868;11.892;2022-08-05T04:11:59;18.70;99.90
5200;DHT22;2619;47.868;11.892;2022-08-05T04:14:26;18.80;99.90
5200;DHT22;2619;47.868;11.892;2022-08-05T04:16:53;18.80;99.90
5200;DHT22;2619;47.868;11.892;2022-08-05T04:19:19;18.90;99.90
5200;DHT22;2619;47.868;11.892;2022-08-05T04:21:45;18.90;99.90
5200;DHT22;2619;47.868;11.892;2022-08-05T04:24:11;18.90;99.90
5200;DHT22;2619;47.868;11.892;2022-08-05T04:26:36;18.80;99.90
5200;DHT22;2619;47.868;11.892;2022-08-05T04:29:02;18.70;99.90
5200;DHT22;2619;47.868;11.892;2022-08-05T04:31:28;18.70;99.90
5200;DHT22;2619;47.868;11.892;2022-08-05T04:33:54;18.70;99.90
5200;DHT22;2619;47.868;11.892;2022-08-05T04:36:19;18.70;99.90
5200;DHT22;2619;47.868;11.892;2022-08-05T04:38:45;18.70;99.90
5200;DHT22;2619;47.868;11.892;2022-08-05T04:41:11;18.70;99.90
5200;DHT22;2619;47.868;11.892;2022-08-05T04:43:37;18.70;99.90
5200;DHT22;2619;47.868;11.892;2022-08-05T04:46:03;18.70;99.90
5200;DHT22;2619;47.868;11.892;2022-08-05T04:48:29;18.60;99.90
5200;DHT22;2619;47.868;11.892;2022-08-05T04:50:55;18.60;99.90
5200;DHT22;2619;47.868;11.892;2022-08-05T04:53:21;18.70;99.90
5200;DHT22;2619;47.868;11.892;2022-08-05T04:55:47;18.70;99.90
5200;DHT22;2619;47.868;11.892;2022-08-05T04:58:15;18.70;99.90
5200;DHT22;2619;47.868;11.892;2022-08-05T05:00:41;18.70;99.90
5200;DHT22;2619;47.868;11.892;2022-08-05T05:03:08;18.70;99.90
5200;DHT22;2619;47.868;11.892;2022-08-05T05:05:35;18.80;99.90
5200;DHT22;2619;47.868;11.892;2022-08-05T05:08:05;18.80;99.90
5200;DHT22;2619;47.868;11.892;2022-08-05T05:10:36;18.80;99.90
5200;DHT22;2619;47.868;11.892;2022-08-05T05:13:02;19.10;99.90
5200;DHT22;2619;47.868;11.892;2022-08-05T05:15:28;19.40;99.90
5200;DHT22;2619;47.868;11.892;2022-08-05T05:17:54;20.00;99.90
5200;DHT22;2619;47.868;11.892;2022-08-05T05:20:19;20.50;99.90
5200;DHT22;2619;47.868;11.892;2022-08-05T05:22:45;21.50;99.90
5200;DHT22;2619;47.868;11.892;2022-08-05T05:25:11;22.80;99.90
5200;DHT22;2619;47.868;11.892;2022-08-05T05:27:37;24.10;99.90
5200;DHT22;2619;47.868;11.892;2022-08-05T05:30:03;25.40;99.90
5200;DHT22;2619;47.868;11.892;2022-08-05T05:32:29;26.50;99.90
5200;DHT22;2619;47.868;11.892;2022-08-05T05:34:55;26.90;99.90
5200;DHT22;2619;47.868;11.892;2022-08-05T05:37:20;27.40;99.90
5200;DHT22;2619;47.868;11.892;2022-08-05T05:39:46;28.20;99.90
5200;DHT22;2619;47.868;11.892;2022-08-05T05:42:11;29.10;99.90
5200;DHT22;2619;47.868;11.892;2022-08-05T05:44:37;29.50;99.90
5200;DHT22;2619;47.868;11.892;2022-08-05T05:47:03;30.10;99.90
5200;DHT22;2619;47.868;11.892;2022-08-05T05:49:28;30.60;99.90
5200;DHT22;2619;47.868;11.892;2022-08-05T05:51:54;31.50;99.90
5200;DHT22;2619;47.868;11.892;2022-08-05T05:54:20;32.20;99.30
5200;DHT22;2619;47.868;11.892;2022-08-05T05:56:46;33.10;98.40
5200;DHT22;2619;47.868;11.892;2022-08-05T05:59:11;33.90;96.80
5200;DHT22;2619;47.868;11.892;2022-08-05T06:01:38;34.40;95.30
5200;DHT22;2619;47.868;11.892;2022-08-05T06:04:08;34.90;92.40
5200;DHT22;2619;47.868;11.892;2022-08-05T06:06:34;35.00;91.80
5200;DHT22;2619;47.868;11.892;2022-08-05T06:09:00;35.10;91.20
5200;DHT22;2619;47.868;11.892;2022-08-05T06:11:26;35.20;90.20
5200;DHT22;2619;47.868;11.892;2022-08-05T06:13:52;35.70;89.70
5200;DHT22;2619;47.868;11.892;2022-08-05T06:16:17;36.00;86.90
5200;DHT22;2619;47.868;11.892;2022-08-05T06:18:43;36.70;87.30
5200;DHT22;2619;47.868;11.892;2022-08-05T06:21:09;37.10;84.20
5200;DHT22;2619;47.868;11.892;2022-08-05T06:23:34;37.30;83.90
5200;DHT22;2619;47.868;11.892;2022-08-05T06:26:00;37.00;79.80
5200;DHT22;2619;47.868;11.892;2022-08-05T06:28:26;37.70;79.50
5200;DHT22;2619;47.868;11.892;2022-08-05T06:30:51;37.30;76.90
5200;DHT22;2619;47.868;11.892;2022-08-05T06:33:17;36.60;72.70
5200;DHT22;2619;47.868;11.892;2022-08-05T06:35:42;36.90;75.10
5200;DHT22;2619;47.868;11.892;2022-08-05T06:38:08;35.60;73.40
5200;DHT22;2619;47.868;11.892;2022-08-05T06:40:34;34.30;77.50
5200;DHT22;2619;47.868;11.892;2022-08-05T06:42:59;34.40;77.50
5200;DHT22;2619;47.868;11.892;2022-08-05T06:45:25;35.00;77.20
5200;DHT22;2619;47.868;11.892;2022-08-05T06:47:51;34.80;77.80
5200;DHT22;2619;47.868;11.892;2022-08-05T06:50:16;34.20;78.40
5200;DHT22;2619;47.868;11.892;2022-08-05T06:52:42;33.80;82.20
5200;DHT22;2619;47.868;11.892;2022-08-05T06:55:08;33.40;79.50
5200;DHT22;2619;47.868;11.892;2022-08-05T06:57:33;33.00;80.20
5200;DHT22;2619;47.868;11.892;2022-08-05T06:59:59;32.90;84.80
5200;DHT22;2619;47.868;11.892;2022-08-05T07:02:25;33.00;80.70
5200;DHT22;2619;47.868;11.892;2022-08-05T07:04:50;33.90;77.50
5200;DHT22;2619;47.868;11.892;2022-08-05T07:07:16;34.70;78.00
5200;DHT22;2619;47.868;11.892;2022-08-05T07:09:42;36.10;76.90
5200;DHT22;2619;47.868;11.892;2022-08-05T07:12:08;36.60;72.00
5200;DHT22;2619;47.868;11.892;2022-08-05T07:14:54;36.70;71.30
5200;DHT22;2619;47.868;11.892;2022-08-05T07:17:38;36.70;72.10
5200;DHT22;2619;47.868;11.892;2022-08-05T07:20:03;36.00;68.30
5200;DHT22;2619;47.868;11.892;2022-08-05T07:22:29;35.20;70.10
5200;DHT22;2619;47.868;11.892;2022-08-05T07:24:56;35.10;72.90
5200;DHT22;2619;47.868;11.892;2022-08-05T07:27:22;35.00;71.20
5200;DHT22;2619;47.868;11.892;2022-08-05T07:29:47;34.30;72.40
5200;DHT22;2619;47.868;11.892;2022-08-05T07:32:13;33.70;73.90
5200;DHT22;2619;47.868;11.892;2022-08-05T07:34:38;33.80;74.50
5200;DHT22;2619;47.868;11.892;2022-08-05T07:37:04;34.00;76.20
5200;DHT22;2619;47.868;11.892;2022-08-05T07:39:29;34.20;77.40
5200;DHT22;2619;47.868;11.892;2022-08-05T07:41:55;34.40;75.40
5200;DHT22;2619;47.868;11.892;2022-08-05T07:44:23;34.40;74.40
5200;DHT22;2619;47.868;11.892;2022-08-05T07:46:49;34.50;73.90
5200;DHT22;2619;47.868;11.892;2022-08-05T07:49:15;34.10;73.80
5200;DHT22;2619;47.868;11.892;2022-08-05T07:51:40;33.50;78.40
5200;DHT22;2619;47.868;11.892;2022-08-05T07:54:06;33.40;77.30
5200;DHT22;2619;47.868;11.892;2022-08-05T07:56:32;33.60;76.60
5200;DHT22;2619;47.868;11.892;2022-08-05T07:58:58;33.70;74.60
5200;DHT22;2619;47.868;11.892;2022-08-05T08:01:23;33.30;74.10
5200;DHT22;2619;47.868;11.892;2022-08-05T08:03:50;32.80;74.60
5200;DHT22;2619;47.868;11.892;2022-08-05T08:06:16;32.50;76.40
5200;DHT22;2619;47.868;11.892;2022-08-05T08:08:42;32.60;79.50
5200;DHT22;2619;47.868;11.892;2022-08-05T08:11:07;32.40;76.30
5200;DHT22;2619;47.868;11.892;2022-08-05T08:13:33;32.20;77.50
5200;DHT22;2619;47.868;11.892;2022-08-05T08:15:58;32.30;78.60
5200;DHT22;2619;47.868;11.892;2022-08-05T08:18:24;32.80;77.80
5200;DHT22;2619;47.868;11.892;2022-08-05T08:20:49;33.00;80.10
5200;DHT22;2619;47.868;11.892;2022-08-05T08:23:16;33.10;77.70
5200;DHT22;2619;47.868;11.892;2022-08-05T08:25:43;33.40;75.80
5200;DHT22;2619;47.868;11.892;2022-08-05T08:28:09;33.40;75.60
5200;DHT22;2619;47.868;11.892;2022-08-05T08:30:35;33.40;76.70
5200;DHT22;2619;47.868;11.892;2022-08-05T08:33:05;34.10;76.20
5200;DHT22;2619;47.868;11.892;2022-08-05T08:35:31;34.10;74.70
5200;DHT22;2619;47.868;11.892;2022-08-05T08:37:57;33.80;71.60
5200;DHT22;2619;47.868;11.892;2022-08-05T08:40:22;33.40;71.70
5200;DHT22;2619;47.868;11.892;2022-08-05T08:42:50;33.20;72.10
5200;DHT22;2619;47.868;11.892;2022-08-05T08:45:19;32.30;74.20
5200;DHT22;2619;47.868;11.892;2022-08-05T08:47:46;31.20;76.60
5200;DHT22;2619;47.868;11.892;2022-08-05T08:50:14;30.60;79.80
5200;DHT22;2619;47.868;11.892;2022-08-05T08:52:42;30.90;81.70
5200;DHT22;2619;47.868;11.892;2022-08-05T08:55:10;30.80;79.10
5200;DHT22;2619;47.868;11.892;2022-08-05T08:57:35;30.80;80.40
5200;DHT22;2619;47.868;11.892;2022-08-05T09:00:02;30.90;80.90
5200;DHT22;2619;47.868;11.892;2022-08-05T09:02:29;30.90;81.20
5200;DHT22;2619;47.868;11.892;2022-08-05T09:04:54;30.90;82.30
5200;DHT22;2619;47.868;11.892;2022-08-05T09:07:20;31.10;80.00
5200;DHT22;2619;47.868;11.892;2022-08-05T09:09:45;31.00;83.70
5200;DHT22;2619;47.868;11.892;2022-08-05T09:12:11;30.90;80.50
5200;DHT22;2619;47.868;11.892;2022-08-05T09:14:37;30.80;81.30
5200;DHT22;2619;47.868;11.892;2022-08-05T09:17:05;31.00;85.20
5200;DHT22;2619;47.868;11.892;2022-08-05T09:19:31;30.90;81.10
5200;DHT22;2619;47.868;11.892;2022-08-05T09:21:58;30.90;81.70
5200;DHT22;2619;47.868;11.892;2022-08-05T09:24:23;31.10;83.40
5200;DHT22;2619;47.868;11.892;2022-08-05T09:26:50;31.20;85.20
5200;DHT22;2619;47.868;11.892;2022-08-05T09:29:17;31.40;83.50
5200;DHT22;2619;47.868;11.892;2022-08-05T09:31:43;31.50;81.90
5200;DHT22;2619;47.868;11.892;2022-08-05T09:34:25;31.40;81.40
5200;DHT22;2619;47.868;11.892;2022-08-05T09:36:50;31.30;81.60
5200;DHT22;2619;47.868;11.892;2022-08-05T09:39:18;31.00;82.00
5200;DHT22;2619;47.868;11.892;2022-08-05T09:41:58;30.70;83.20
5200;DHT22;2619;47.868;11.892;2022-08-05T09:44:39;30.50;84.70
5200;DHT22;2619;47.868;11.892;2022-08-05T09:47:19;30.20;84.90
5200;DHT22;2619;47.868;11.892;2022-08-05T09:49:46;30.30;86.80
5200;DHT22;2619;47.868;11.892;2022-08-05T09:52:30;30.50;86.60
5200;DHT22;2619;47.868;11.892;2022-08-05T09:54:58;30.80;84.10
5200;DHT22;2619;47.868;11.892;2022-08-05T09:57:36;31.10;85.10
5200;DHT22;2619;47.868;11.892;2022-08-05T10:00:07;31.30;84.70
5200;DHT22;2619;47.868;11.892;2022-08-05T10:02:37;31.50;84.10
5200;DHT22;2619;47.868;11.892;2022-08-05T10:05:05;31.50;82.90
5200;DHT22;2619;47.868;11.892;2022-08-05T10:08:03;31.30;81.60
5200;DHT22;2619;47.868;11.892;2022-08-05T10:10:35;31.10;83.00
5200;DHT22;2619;47.868;11.892;2022-08-05T10:13:02;30.90;82.00
5200;DHT22;2619;47.868;11.892;2022-08-05T10:15:39;30.90;81.10
5200;DHT22;2619;47.868;11.892;2022-08-05T10:20:36;31.10;82.90
5200;DHT22;2619;47.868;11.892;2022-08-05T10:23:03;31.20;80.50
5200;DHT22;2619;47.868;11.892;2022-08-05T10:25:29;31.10;80.80
5200;DHT22;2619;47.868;11.892;2022-08-05T10:27:54;31.10;80.00
5200;DHT22;2619;47.868;11.892;2022-08-05T10:30:21;31.20;84.70
5200;DHT22;2619;47.868;11.892;2022-08-05T10:32:47;31.40;81.50
5200;DHT22;2619;47.868;11.892;2022-08-05T10:35:13;31.30;81.00
5200;DHT22;2619;47.868;11.892;2022-08-05T10:37:40;31.30;82.90
5200;DHT22;2619;47.868;11.892;2022-08-05T10:40:13;31.50;86.40
5200;DHT22;2619;47.868;11.892;2022-08-05T10:42:42;31.30;80.20
5200;DHT22;2619;47.868;11.892;2022-08-05T10:45:11;31.40;81.80
5200;DHT22;2619;47.868;11.892;2022-08-05T10:47:38;31.40;82.60
5200;DHT22;2619;47.868;11.892;2022-08-05T10:50:10;31.50;81.40
5200;DHT22;2619;47.868;11.892;2022-08-05T10:52:40;31.30;82.80
5200;DHT22;2619;47.868;11.892;2022-08-05T10:55:11;31.30;83.50
5200;DHT22;2619;47.868;11.892;2022-08-05T10:57:38;31.40;82.90
5200;DHT22;2619;47.868;11.892;2022-08-05T11:00:28;31.60;83.90
5200;DHT22;2619;47.868;11.892;2022-08-05T11:05:32;31.50;82.70
5200;DHT22;2619;47.868;11.892;2022-08-05T11:08:00;31.40;82.20
5200;DHT22;2619;47.868;11.892;2022-08-05T11:10:27;31.50;81.40
5200;DHT22;2619;47.868;11.892;2022-08-05T11:12:53;31.50;86.10
5200;DHT22;2619;47.868;11.892;2022-08-05T11:15:31;31.40;81.80
5200;DHT22;2619;47.868;11.892;2022-08-05T11:20:51;31.40;85.90
5200;DHT22;2619;47.868;11.892;2022-08-05T11:26:09;31.60;82.70
5200;DHT22;2619;47.868;11.892;2022-08-05T11:33:31;32.00;86.70
5200;DHT22;2619;47.868;11.892;2022-08-05T11:35:58;32.10;80.90
5200;DHT22;2619;47.868;11.892;2022-08-05T11:41:17;31.90;82.70
5200;DHT22;2619;47.868;11.892;2022-08-05T11:43:57;31.80;78.70
5200;DHT22;2619;47.868;11.892;2022-08-05T11:48:52;32.10;81.00
5200;DHT22;2619;47.868;11.892;2022-08-05T11:51:18;32.10;82.70
5200;DHT22;2619;47.868;11.892;2022-08-05T11:53:45;32.10;83.50
5200;DHT22;2619;47.868;11.892;2022-08-05T11:56:11;32.20;83.50
5200;DHT22;2619;47.868;11.892;2022-08-05T11:58:40;32.20;80.30
5200;DHT22;2619;47.868;11.892;2022-08-05T12:03:41;32.60;84.70
5200;DHT22;2619;47.868;11.892;2022-08-05T12:06:08;32.60;80.70
5200;DHT22;2619;47.868;11.892;2022-08-05T12:08:48;32.80;84.80
5200;DHT22;2619;47.868;11.892;2022-08-05T12:11:25;32.70;80.20
5200;DHT22;2619;47.868;11.892;2022-08-05T12:14:03;32.70;83.80
5200;DHT22;2619;47.868;11.892;2022-08-05T12:16:38;33.10;86.20
5200;DHT22;2619;47.868;11.892;2022-08-05T12:19:05;33.30;81.70
5200;DHT22;2619;47.868;11.892;2022-08-05T12:21:41;33.10;81.80
5200;DHT22;2619;47.868;11.892;2022-08-05T12:24:12;33.30;79.90
5200;DHT22;2619;47.868;11.892;2022-08-05T12:26:40;33.40;82.80
5200;DHT22;2619;47.868;11.892;2022-08-05T12:29:11;33.60;79.00
5200;DHT22;2619;47.868;11.892;2022-08-05T12:31:38;33.80;78.70
5200;DHT22;2619;47.868;11.892;2022-08-05T12:34:06;33.80;76.70
5200;DHT22;2619;47.868;11.892;2022-08-05T12:36:34;33.80;78.70
5200;DHT22;2619;47.868;11.892;2022-08-05T12:39:00;33.90;77.80
5200;DHT22;2619;47.868;11.892;2022-08-05T12:41:34;34.00;76.80
5200;DHT22;2619;47.868;11.892;2022-08-05T12:44:05;33.90;75.80
5200;DHT22;2619;47.868;11.892;2022-08-05T12:46:33;34.00;77.40
5200;DHT22;2619;47.868;11.892;2022-08-05T12:49:12;34.10;73.60
5200;DHT22;2619;47.868;11.892;2022-08-05T12:51:48;34.10;74.90
5200;DHT22;2619;47.868;11.892;2022-08-05T12:54:28;34.00;74.50
5200;DHT22;2619;47.868;11.892;2022-08-05T12:57:00;33.70;76.70
5200;DHT22;2619;47.868;11.892;2022-08-05T12:59:31;33.70;75.50
5200;DHT22;2619;47.868;11.892;2022-08-05T13:02:03;33.60;77.20
5200;DHT22;2619;47.868;11.892;2022-08-05T13:04:35;33.50;76.40
5200;DHT22;2619;47.868;11.892;2022-08-05T13:07:03;33.30;75.80
5200;DHT22;2619;47.868;11.892;2022-08-05T13:09:29;33.20;73.90
5200;DHT22;2619;47.868;11.892;2022-08-05T13:12:06;33.10;75.10
5200;DHT22;2619;47.868;11.892;2022-08-05T13:14:43;32.90;73.80
5200;DHT22;2619;47.868;11.892;2022-08-05T13:17:25;32.60;74.80
5200;DHT22;2619;47.868;11.892;2022-08-05T13:20:14;32.50;74.40
5200;DHT22;2619;47.868;11.892;2022-08-05T13:22:42;32.50;76.00
5200;DHT22;2619;47.868;11.892;2022-08-05T13:25:10;32.70;77.50
5200;DHT22;2619;47.868;11.892;2022-08-05T13:27:38;32.70;85.30
5200;DHT22;2619;47.868;11.892;2022-08-05T13:30:06;32.60;82.20
5200;DHT22;2619;47.868;11.892;2022-08-05T13:32:32;32.80;83.90
5200;DHT22;2619;47.868;11.892;2022-08-05T13:34:58;32.90;87.60
5200;DHT22;2619;47.868;11.892;2022-08-05T13:37:23;32.90;79.60
5200;DHT22;2619;47.868;11.892;2022-08-05T13:39:50;32.90;82.10
5200;DHT22;2619;47.868;11.892;2022-08-05T13:42:18;32.90;82.30
5200;DHT22;2619;47.868;11.892;2022-08-05T13:44:45;32.90;82.70
5200;DHT22;2619;47.868;11.892;2022-08-05T13:47:12;32.80;84.40
5200;DHT22;2619;47.868;11.892;2022-08-05T13:49:38;32.70;84.10
5200;DHT22;2619;47.868;11.892;2022-08-05T13:52:16;32.80;83.90
5200;DHT22;2619;47.868;11.892;2022-08-05T13:54:43;32.70;86.30
5200;DHT22;2619;47.868;11.892;2022-08-05T13:57:09;32.40;89.20
5200;DHT22;2619;47.868;11.892;2022-08-05T13:59:36;32.20;88.90
5200;DHT22;2619;47.868;11.892;2022-08-05T14:02:03;32.10;89.50
5200;DHT22;2619;47.868;11.892;2022-08-05T14:04:31;31.90;90.70
5200;DHT22;2619;47.868;11.892;2022-08-05T14:07:16;31.60;90.70
5200;DHT22;2619;47.868;11.892;2022-08-05T14:09:41;31.30;91.50
5200;DHT22;2619;47.868;11.892;2022-08-05T14:12:07;30.90;91.80
5200;DHT22;2619;47.868;11.892;2022-08-05T14:14:33;30.80;91.20
5200;DHT22;2619;47.868;11.892;2022-08-05T14:16:58;30.70;90.90
5200;DHT22;2619;47.868;11.892;2022-08-05T14:19:24;30.50;93.10
5200;DHT22;2619;47.868;11.892;2022-08-05T14:21:49;30.10;93.20
5200;DHT22;2619;47.868;11.892;2022-08-05T14:24:15;29.70;94.00
5200;DHT22;2619;47.868;11.892;2022-08-05T14:26:40;29.20;92.50
5200;DHT22;2619;47.868;11.892;2022-08-05T14:29:06;28.90;93.10
5200;DHT22;2619;47.868;11.892;2022-08-05T14:31:32;28.90;94.50
5200;DHT22;2619;47.868;11.892;2022-08-05T14:33:58;28.90;94.50
5200;DHT22;2619;47.868;11.892;2022-08-05T14:36:24;28.80;94.60
5200;DHT22;2619;47.868;11.892;2022-08-05T14:38:50;28.50;94.40
5200;DHT22;2619;47.868;11.892;2022-08-05T14:41:15;28.20;95.00
5200;DHT22;2619;47.868;11.892;2022-08-05T14:43:41;27.70;96.40
5200;DHT22;2619;47.868;11.892;2022-08-05T14:46:07;27.50;97.50
5200;DHT22;2619;47.868;11.892;2022-08-05T14:48:32;27.30;99.00
5200;DHT22;2619;47.868;11.892;2022-08-05T14:50:58;27.20;99.90
5200;DHT22;2619;47.868;11.892;2022-08-05T14:53:23;27.00;99.30
5200;DHT22;2619;47.868;11.892;2022-08-05T14:55:49;27.00;99.90
5200;DHT22;2619;47.868;11.892;2022-08-05T14:58:14;27.00;99.90
5200;DHT22;2619;47.868;11.892;2022-08-05T15:00:40;27.20;99.90
5200;DHT22;2619;47.868;11.892;2022-08-05T15:03:06;27.40;99.90
5200;DHT22;2619;47.868;11.892;2022-08-05T15:05:32;27.80;99.90
5200;DHT22;2619;47.868;11.892;2022-08-05T15:07:59;28.20;99.90
5200;DHT22;2619;47.868;11.892;2022-08-05T15:10:24;28.60;98.40
5200;DHT22;2619;47.868;11.892;2022-08-05T15:12:50;29.00;97.50
5200;DHT22;2619;47.868;11.892;2022-08-05T15:15:15;29.60;96.90
5200;DHT22;2619;47.868;11.892;2022-08-05T15:17:41;30.00;96.20
5200;DHT22;2619;47.868;11.892;2022-08-05T15:20:09;30.40;94.60
5200;DHT22;2619;47.868;11.892;2022-08-05T15:22:35;30.80;94.10
5200;DHT22;2619;47.868;11.892;2022-08-05T15:25:00;31.10;93.30
5200;DHT22;2619;47.868;11.892;2022-08-05T15:27:26;31.30;93.20
5200;DHT22;2619;47.868;11.892;2022-08-05T15:29:52;31.50;93.60
5200;DHT22;2619;47.868;11.892;2022-08-05T15:32:17;31.60;93.60
5200;DHT22;2619;47.868;11.892;2022-08-05T15:34:43;31.40;92.80
5200;DHT22;2619;47.868;11.892;2022-08-05T15:37:09;31.80;94.20
5200;DHT22;2619;47.868;11.892;2022-08-05T15:39:34;32.00;92.10
5200;DHT22;2619;47.868;11.892;2022-08-05T15:42:00;32.30;91.80
5200;DHT22;2619;47.868;11.892;2022-08-05T15:44:27;32.20;92.10
5200;DHT22;2619;47.868;11.892;2022-08-05T15:46:52;32.50;91.80
5200;DHT22;2619;47.868;11.892;2022-08-05T15:49:18;32.70;91.90
5200;DHT22;2619;47.868;11.892;2022-08-05T15:51:43;32.90;90.60
5200;DHT22;2619;47.868;11.892;2022-08-05T15:54:10;32.50;90.60
5200;DHT22;2619;47.868;11.892;2022-08-05T15:56:36;32.70;90.80
5200;DHT22;2619;47.868;11.892;2022-08-05T15:59:02;32.70;91.00
5200;DHT22;2619;47.868;11.892;2022-08-05T16:01:27;32.50;90.50
5200;DHT22;2619;47.868;11.892;2022-08-05T16:03:53;32.50;91.10
5200;DHT22;2619;47.868;11.892;2022-08-05T16:06:19;32.50;91.20
5200;DHT22;2619;47.868;11.892;2022-08-05T16:08:45;32.70;89.10
5200;DHT22;2619;47.868;11.892;2022-08-05T16:11:10;32.80;90.30
5200;DHT22;2619;47.868;11.892;2022-08-05T16:13:36;32.80;88.70
5200;DHT22;2619;47.868;11.892;2022-08-05T16:16:02;32.90;90.40
5200;DHT22;2619;47.868;11.892;2022-08-05T16:18:28;33.00;90.20
5200;DHT22;2619;47.868;11.892;2022-08-05T16:20:54;33.10;88.30
5200;DHT22;2619;47.868;11.892;2022-08-05T16:23:19;33.20;89.80
5200;DHT22;2619;47.868;11.892;2022-08-05T16:25:45;32.80;85.60
5200;DHT22;2619;47.868;11.892;2022-08-05T16:28:10;32.60;91.10